Time,TemperatureF,DewpointF,PressureIn,WindDirection,WindDirectionDegrees,WindSpeedMPH,WindSpeedGustMPH,Humidity,HourlyPrecipIn,Conditions,Clouds,dailyrainin,SoftwareType,DateUTC
2013-07-09 00:01:00,63.6,63.6,30.31,NW,318,0.0,0.0,100,0.00,n/a,n/a,-99.99,Henriksen +1-Wire,2013-07-09 04:01:00,
2013-07-09 00:02:00,63.6,63.6,30.31,NW,318,0.0,0.0,100,0.00,n/a,n/a,-99.99,Henriksen +1-Wire,2013-07-09 04:02:00,
2013-07-09 00:03:00,63.6,63.6,30.31,NW,311,0.0,0.0,100,0.00,n/a,n/a,-99.99,Henriksen +1-Wire,2013-07-09 04:03:00,
2013-07-09 00:04:00,63.6,63.6,30.31,NW,317,0.0,0.0,100,0.00,n/a,n/a,-99.99,Henriksen +1-Wire,2013-07-09 04:04:00,
2013-07-09 00:10:00,63.7,63.7,30.31,East,95,0.0,0.0,100,0.00,n/a,n/a,-99.99,Henriksen +1-Wire,2013-07-09 04:10:00,
2013-07-09 00:11:00,63.7,63.7,30.30,SSE,156,0.0,0.0,100,0.00,n/a,n/a,-99.99,Henriksen +1-Wire,2013-07-09 04:11:00,
2013-07-09 00:17:00,63.8,63.8,30.29,SE,145,0.0,0.0,100,0.00,n/a,n/a,-99.99,Henriksen +1-Wire,2013-07-09 04:17:00,
2013-07-09 00:22:00,63.7,63.7,30.29,NNW,327,0.0,0.0,100,0.00,n/a,n/a,-99.99,Henriksen +1-Wire,2013-07-09 04:22:00,
2013-07-09 02:27:00,63.8,63.8,30.28,NE,46,0.0,0.0,100,0.00,n/a,n/a,-99.99,Henriksen +1-Wire,2013-07-09 06:27:00,
2013-07-09 02:32:00,63.8,63.8,30.28,NE,42,0.0,0.5,100,0.00,n/a,n/a,-99.99,Henriksen +1-Wire,2013-07-09 06:32:00,
2013-07-09 02:37:00,63.8,63.8,30.28,NE,38,0.0,0.5,100,0.00,n/a,n/a,-99.99,Henriksen +1-Wire,2013-07-09 06:37:00,
2013-07-09 02:42:00,63.8,63.8,30.27,NE,43,0.0,0.0,100,0.00,n/a,n/a,-99.99,Henriksen +1-Wire,2013-07-09 06:42:00,
2013-07-09 02:47:00,63.7,63.7,30.26,NE,42,0.0,0.5,100,0.00,n/a,n/a,-99.99,Henriksen +1-Wire,2013-07-09 06:47:00,
2013-07-09 02:52:00,63.7,63.7,30.25,NNE,12,0.0,1.0,100,0.00,n/a,n/a,-99.99,Henriksen +1-Wire,2013-07-09 06:52:00,
2013-07-09 02:57:00,63.7,63.7,30.25,NNE,29,0.0,1.0,100,0.00,n/a,n/a,-99.99,Henriksen +1-Wire,2013-07-09 06:57:00,
2013-07-09 03:02:00,63.7,63.7,30.25,SW,231,0.0,0.0,100,0.00,n/a,n/a,-99.99,Henriksen +1-Wire,2013-07-09 07:02:00,
2013-07-09 03:07:00,63.7,63.7,30.25,ENE,64,0.0,0.0,100,0.00,n/a,n/a,-99.99,Henriksen +1-Wire,2013-07-09 07:07:00,
2013-07-09 03:13:00,63.7,63.7,30.25,ESE,102,0.0,0.0,100,0.00,n/a,n/a,-99.99,Henriksen +1-Wire,2013-07-09 07:13:00,
2013-07-09 03:18:00,63.7,63.7,30.24,East,99,0.0,0.0,100,0.00,n/a,n/a,-99.99,Henriksen +1-Wire,2013-07-09 07:18:00,
2013-07-09 03:23:00,63.7,63.7,30.23,NW,313,0.0,0.0,100,0.00,n/a,n/a,-99.99,Henriksen +1-Wire,2013-07-09 07:23:00,
2013-07-09 03:29:00,63.7,63.7,30.24,WNW,303,0.0,0.0,100,0.00,n/a,n/a,-99.99,Henriksen +1-Wire,2013-07-09 07:29:00,
2013-07-09 03:34:00,63.7,63.7,30.25,NE,45,0.0,0.0,100,0.00,n/a,n/a,-99.99,Henriksen +1-Wire,2013-07-09 07:34:00,
2013-07-09 03:39:00,63.7,63.7,30.25,NE,34,0.0,0.0,100,0.00,n/a,n/a,-99.99,Henriksen +1-Wire,2013-07-09 07:39:00,
2013-07-09 03:45:00,63.8,63.8,30.25,West,281,0.0,0.0,100,0.00,n/a,n/a,-99.99,Henriksen +1-Wire,2013-07-09 07:45:00,
2013-07-09 03:53:00,63.8,63.8,30.26,North,352,0.0,0.0,100,0.00,n/a,n/a,-99.99,Henriksen +1-Wire,2013-07-09 07:53:00,
2013-07-09 03:58:00,63.8,63.8,30.26,West,266,0.0,0.0,100,0.00,n/a,n/a,-99.99,Henriksen +1-Wire,2013-07-09 07:58:00,
2013-07-09 04:03:00,63.8,63.8,30.26,East,82,0.0,0.0,100,0.00,n/a,n/a,-99.99,Henriksen +1-Wire,2013-07-09 08:03:00,
2013-07-09 04:08:00,63.8,63.8,30.25,East,89,0.0,0.0,100,0.00,n/a,n/a,-99.99,Henriksen +1-Wire,2013-07-09 08:08:00,
2013-07-09 04:13:00,63.8,63.8,30.25,NNE,21,0.0,0.0,100,0.00,n/a,n/a,-99.99,Henriksen +1-Wire,2013-07-09 08:13:00,
2013-07-09 04:18:00,63.8,63.8,30.26,ENE,64,0.0,0.0,100,0.00,n/a,n/a,-99.99,Henriksen +1-Wire,2013-07-09 08:18:00,
2013-07-09 04:23:00,63.8,63.8,30.26,SE,129,0.0,0.0,100,0.00,n/a,n/a,-99.99,Henriksen +1-Wire,2013-07-09 08:23:00,
2013-07-09 04:29:00,63.8,63.8,30.26,East,85,0.0,0.0,100,0.00,n/a,n/a,-99.99,Henriksen +1-Wire,2013-07-09 08:29:00,
2013-07-09 04:34:00,63.8,63.8,30.26,NNE,29,0.0,0.0,100,0.00,n/a,n/a,-99.99,Henriksen +1-Wire,2013-07-09 08:34:00,
2013-07-09 04:39:00,63.8,63.8,30.26,NE,49,0.0,0.0,100,0.00,n/a,n/a,-99.99,Henriksen +1-Wire,2013-07-09 08:39:00,
2013-07-09 04:44:00,63.8,63.8,30.26,NNE,24,0.0,0.0,100,0.00,n/a,n/a,-99.99,Henriksen +1-Wire,2013-07-09 08:44:00,
2013-07-09 04:49:00,63.8,63.8,30.26,NNE,23,0.0,0.5,100,0.00,n/a,n/a,-99.99,Henriksen +1-Wire,2013-07-09 08:49:00,
2013-07-09 04:54:00,63.8,63.8,30.26,NE,45,0.0,0.5,100,0.00,n/a,n/a,-99.99,Henriksen +1-Wire,2013-07-09 08:54:00,
2013-07-09 04:59:00,63.7,63.7,30.27,NNE,28,0.0,0.0,100,0.00,n/a,n/a,-99.99,Henriksen +1-Wire,2013-07-09 08:59:00,
2013-07-09 05:05:00,63.7,63.7,30.28,NE,36,0.0,0.0,100,0.00,n/a,n/a,-99.99,Henriksen +1-Wire,2013-07-09 09:05:00,
2013-07-09 05:10:00,63.7,63.7,30.29,NE,40,0.0,0.0,100,0.00,n/a,n/a,-99.99,Henriksen +1-Wire,2013-07-09 09:10:00,
2013-07-09 05:15:00,63.7,63.7,30.29,North,2,0.0,0.0,100,0.00,n/a,n/a,-99.99,Henriksen +1-Wire,2013-07-09 09:15:00,
2013-07-09 05:20:00,63.7,63.7,30.30,NNE,21,0.0,0.0,100,0.00,n/a,n/a,-99.99,Henriksen +1-Wire,2013-07-09 09:20:00,
2013-07-09 05:26:00,63.7,63.7,30.31,ENE,57,0.1,0.6,100,0.00,n/a,n/a,-99.99,Henriksen +1-Wire,2013-07-09 09:26:00,
2013-07-09 05:51:00,63.8,63.8,35.38,WSW,255,0.0,0.0,100,0.00,n/a,n/a,-99.99,Henriksen +1-Wire,2013-07-09 09:51:00,
2013-07-09 05:57:00,63.8,63.8,35.39,SSW,210,0.0,0.0,100,0.00,n/a,n/a,-99.99,Henriksen +1-Wire,2013-07-09 09:57:00,
2013-07-09 06:02:00,63.9,63.9,35.40,East,85,0.0,0.0,100,0.00,n/a,n/a,-99.99,Henriksen +1-Wire,2013-07-09 10:02:00,
2013-07-09 06:08:00,63.9,63.9,35.40,ESE,108,0.0,0.4,100,0.00,n/a,n/a,-99.99,Henriksen +1-Wire,2013-07-09 10:08:00,
2013-07-09 06:13:00,63.9,63.9,35.39,NE,52,0.1,1.4,100,0.00,n/a,n/a,-99.99,Henriksen +1-Wire,2013-07-09 10:13:00,
2013-07-09 06:18:00,64.0,64.0,35.40,NE,54,0.5,3.0,100,0.00,n/a,n/a,-99.99,Henriksen +1-Wire,2013-07-09 10:18:00,
2013-07-09 06:23:00,64.1,64.1,35.40,ENE,75,0.0,3.0,100,0.00,n/a,n/a,-99.99,Henriksen +1-Wire,2013-07-09 10:23:00,
2013-07-09 06:28:00,64.1,64.1,35.39,East,98,0.1,2.1,100,0.00,n/a,n/a,-99.99,Henriksen +1-Wire,2013-07-09 10:28:00,
2013-07-09 06:33:00,64.2,64.2,35.40,East,84,0.0,2.1,100,0.00,n/a,n/a,-99.99,Henriksen +1-Wire,2013-07-09 10:33:00,
2013-07-09 06:38:00,64.2,64.2,35.40,ENE,73,0.1,1.8,100,0.00,n/a,n/a,-99.99,Henriksen +1-Wire,2013-07-09 10:38:00,
2013-07-09 06:44:00,64.3,64.3,35.39,East,79,0.4,2.1,100,0.00,n/a,n/a,-99.99,Henriksen +1-Wire,2013-07-09 10:44:00,
2013-07-09 06:49:00,64.3,64.3,35.39,ENE,70,0.1,2.1,100,0.00,n/a,n/a,-99.99,Henriksen +1-Wire,2013-07-09 10:49:00,
2013-07-09 06:54:00,64.3,64.3,35.40,NNE,32,0.0,2.0,100,0.00,n/a,n/a,-99.99,Henriksen +1-Wire,2013-07-09 10:54:00,
2013-07-09 07:00:00,64.3,64.3,35.41,NE,34,0.0,0.0,100,0.00,n/a,n/a,-99.99,Henriksen +1-Wire,2013-07-09 11:00:00,
2013-07-09 07:01:00,64.3,64.3,35.41,NNE,28,0.0,0.0,100,0.00,n/a,n/a,-99.99,Henriksen +1-Wire,2013-07-09 11:01:00,
2013-07-09 07:06:00,64.4,64.4,35.41,NE,39,0.0,0.0,100,0.00,n/a,n/a,-99.99,Henriksen +1-Wire,2013-07-09 11:06:00,
2013-07-09 07:11:00,64.4,64.4,35.42,NNE,32,0.0,0.0,100,0.00,n/a,n/a,-99.99,Henriksen +1-Wire,2013-07-09 11:11:00,
2013-07-09 07:17:00,64.5,64.5,35.42,ENE,61,0.0,0.0,100,0.00,n/a,n/a,-99.99,Henriksen +1-Wire,2013-07-09 11:17:00,
2013-07-09 07:23:00,64.5,64.5,35.44,NE,55,0.0,0.0,100,0.00,n/a,n/a,-99.99,Henriksen +1-Wire,2013-07-09 11:23:00,
2013-07-09 07:28:00,64.6,64.6,35.44,ENE,78,0.0,0.0,100,0.00,n/a,n/a,-99.99,Henriksen +1-Wire,2013-07-09 11:28:00,
2013-07-09 07:33:00,64.7,64.7,35.44,ENE,71,0.0,0.0,100,0.00,n/a,n/a,-99.99,Henriksen +1-Wire,2013-07-09 11:33:00,
2013-07-09 07:38:00,64.8,64.8,35.44,ENE,74,0.0,0.0,100,0.00,n/a,n/a,-99.99,Henriksen +1-Wire,2013-07-09 11:38:00,
2013-07-09 07:43:00,64.9,64.9,35.44,ESE,115,0.0,0.0,100,0.00,n/a,n/a,-99.99,Henriksen +1-Wire,2013-07-09 11:43:00,
2013-07-09 07:48:00,65.1,65.1,35.44,East,93,0.0,0.6,100,0.00,n/a,n/a,-99.99,Henriksen +1-Wire,2013-07-09 11:48:00,
2013-07-09 07:53:00,65.1,65.1,35.44,NE,48,0.0,1.8,100,0.00,n/a,n/a,-99.99,Henriksen +1-Wire,2013-07-09 11:53:00,
2013-07-09 07:58:00,65.2,65.2,35.45,NE,49,0.4,1.8,100,0.00,n/a,n/a,-99.99,Henriksen +1-Wire,2013-07-09 11:58:00,
2013-07-09 08:03:00,65.3,65.3,35.45,East,98,0.0,2.1,100,0.00,n/a,n/a,-99.99,Henriksen +1-Wire,2013-07-09 12:03:00,
2013-07-09 08:09:00,65.4,65.4,35.46,NE,53,0.1,2.1,100,0.00,n/a,n/a,-99.99,Henriksen +1-Wire,2013-07-09 12:09:00,
2013-07-09 08:14:00,65.5,65.5,35.47,NNE,14,0.0,1.8,100,0.00,n/a,n/a,-99.99,Henriksen +1-Wire,2013-07-09 12:14:00,
2013-07-09 08:19:00,65.5,65.5,35.47,East,80,1.2,3.6,100,0.00,n/a,n/a,-99.99,Henriksen +1-Wire,2013-07-09 12:19:00,
2013-07-09 08:24:00,65.6,65.6,35.47,NE,54,0.0,3.6,100,0.00,n/a,n/a,-99.99,Henriksen +1-Wire,2013-07-09 12:24:00,
2013-07-09 08:29:00,65.8,65.8,35.47,East,88,0.0,3.6,100,0.00,n/a,n/a,-99.99,Henriksen +1-Wire,2013-07-09 12:29:00,
2013-07-09 08:35:00,66.0,66.0,35.47,East,89,0.0,1.2,100,0.00,n/a,n/a,-99.99,Henriksen +1-Wire,2013-07-09 12:35:00,
2013-07-09 08:40:00,66.2,66.2,35.47,East,93,0.0,1.2,100,0.00,n/a,n/a,-99.99,Henriksen +1-Wire,2013-07-09 12:40:00,
2013-07-09 08:45:00,66.4,66.4,35.47,East,81,0.1,1.2,100,0.00,n/a,n/a,-99.99,Henriksen +1-Wire,2013-07-09 12:45:00,
2013-07-09 08:50:00,66.6,66.6,35.46,ENE,71,0.6,2.4,100,0.00,n/a,n/a,-99.99,Henriksen +1-Wire,2013-07-09 12:50:00,
2013-07-09 08:56:00,66.9,66.9,35.46,East,92,0.0,2.4,100,0.00,n/a,n/a,-99.99,Henriksen +1-Wire,2013-07-09 12:56:00,
2013-07-09 09:01:00,67.2,67.2,35.47,ENE,65,0.2,1.4,100,0.00,n/a,n/a,-99.99,Henriksen +1-Wire,2013-07-09 13:01:00,
2013-07-09 09:06:00,67.3,67.3,35.47,East,82,1.0,3.0,100,0.00,n/a,n/a,-99.99,Henriksen +1-Wire,2013-07-09 13:06:00,
2013-07-09 09:12:00,67.2,67.2,35.47,ESE,106,0.8,4.2,100,0.00,n/a,n/a,-99.99,Henriksen +1-Wire,2013-07-09 13:12:00,
2013-07-09 09:17:00,67.0,67.0,35.47,ESE,106,1.2,5.0,100,0.00,n/a,n/a,-99.99,Henriksen +1-Wire,2013-07-09 13:17:00,
2013-07-09 09:22:00,66.8,66.8,35.48,East,81,0.2,5.0,100,0.00,n/a,n/a,-99.99,Henriksen +1-Wire,2013-07-09 13:22:00,
2013-07-09 09:27:00,66.6,66.6,35.48,ENE,74,0.1,2.4,100,0.00,n/a,n/a,-99.99,Henriksen +1-Wire,2013-07-09 13:27:00,
2013-07-09 09:32:00,66.5,66.5,35.47,ENE,67,0.0,2.8,100,0.00,n/a,n/a,-99.99,Henriksen +1-Wire,2013-07-09 13:32:00,
2013-07-09 09:37:00,66.5,66.5,35.48,ENE,69,0.0,2.8,100,0.00,n/a,n/a,-99.99,Henriksen +1-Wire,2013-07-09 13:37:00,
2013-07-09 09:43:00,66.6,66.6,35.48,NE,52,0.6,2.2,100,0.00,n/a,n/a,-99.99,Henriksen +1-Wire,2013-07-09 13:43:00,
2013-07-09 09:48:00,66.6,66.6,35.48,ENE,63,0.1,2.2,100,0.00,n/a,n/a,-99.99,Henriksen +1-Wire,2013-07-09 13:48:00,
2013-07-09 09:54:00,66.7,66.7,35.47,East,89,0.1,1.8,100,0.00,n/a,n/a,-99.99,Henriksen +1-Wire,2013-07-09 13:54:00,
2013-07-09 09:59:00,66.8,66.8,35.47,East,97,0.0,1.8,100,0.00,n/a,n/a,-99.99,Henriksen +1-Wire,2013-07-09 13:59:00,
2013-07-09 10:04:00,66.9,66.9,35.47,East,99,0.2,1.8,100,0.00,n/a,n/a,-99.99,Henriksen +1-Wire,2013-07-09 14:04:00,
2013-07-09 10:09:00,66.9,66.9,35.47,East,84,0.6,2.5,100,0.00,n/a,n/a,-99.99,Henriksen +1-Wire,2013-07-09 14:09:00,
2013-07-09 10:15:00,67.0,67.0,35.47,NE,56,0.4,2.5,100,0.00,n/a,n/a,-99.99,Henriksen +1-Wire,2013-07-09 14:15:00,
2013-07-09 10:20:00,67.1,67.1,35.47,East,82,0.5,3.9,100,0.00,n/a,n/a,-99.99,Henriksen +1-Wire,2013-07-09 14:20:00,
2013-07-09 10:25:00,67.2,67.2,35.47,East,95,1.0,3.9,100,0.00,n/a,n/a,-99.99,Henriksen +1-Wire,2013-07-09 14:25:00,
2013-07-09 10:30:00,67.3,67.3,35.47,East,93,1.4,4.2,100,0.00,n/a,n/a,-99.99,Henriksen +1-Wire,2013-07-09 14:30:00,
2013-07-09 10:35:00,67.3,67.3,35.48,ESE,102,0.4,4.8,100,0.00,n/a,n/a,-99.99,Henriksen +1-Wire,2013-07-09 14:35:00,
2013-07-09 10:40:00,67.4,67.4,35.48,East,85,1.3,4.8,100,0.00,n/a,n/a,-99.99,Henriksen +1-Wire,2013-07-09 14:40:00,
2013-07-09 10:46:00,67.4,67.4,35.48,ESE,116,0.2,3.6,100,0.00,n/a,n/a,-99.99,Henriksen +1-Wire,2013-07-09 14:46:00,
2013-07-09 10:51:00,67.3,67.3,35.49,ENE,65,0.2,3.5,100,0.00,n/a,n/a,-99.99,Henriksen +1-Wire,2013-07-09 14:51:00,
2013-07-09 10:56:00,67.1,67.1,35.49,East,94,0.2,3.5,100,0.00,n/a,n/a,-99.99,Henriksen +1-Wire,2013-07-09 14:56:00,
2013-07-09 11:01:00,66.9,66.9,35.49,ENE,75,0.2,4.3,100,0.00,n/a,n/a,-99.99,Henriksen +1-Wire,2013-07-09 15:01:00,
2013-07-09 11:06:00,66.7,66.7,35.50,East,81,0.1,4.3,100,0.00,n/a,n/a,-99.99,Henriksen +1-Wire,2013-07-09 15:06:00,
2013-07-09 11:11:00,66.6,66.6,35.50,East,96,0.1,1.8,100,0.00,n/a,n/a,-99.99,Henriksen +1-Wire,2013-07-09 15:11:00,
2013-07-09 11:17:00,66.5,66.5,35.50,East,80,0.0,1.8,100,0.00,n/a,n/a,-99.99,Henriksen +1-Wire,2013-07-09 15:17:00,
2013-07-09 11:22:00,66.5,66.5,35.50,ENE,76,0.4,3.6,100,0.00,n/a,n/a,-99.99,Henriksen +1-Wire,2013-07-09 15:22:00,
2013-07-09 11:27:00,66.6,66.6,35.50,East,81,0.0,3.6,100,0.00,n/a,n/a,-99.99,Henriksen +1-Wire,2013-07-09 15:27:00,
2013-07-09 11:32:00,66.9,66.9,35.49,East,88,0.0,1.2,100,0.00,n/a,n/a,-99.99,Henriksen +1-Wire,2013-07-09 15:32:00,
2013-07-09 11:37:00,67.2,67.2,35.48,East,80,0.0,2.2,100,0.00,n/a,n/a,-99.99,Henriksen +1-Wire,2013-07-09 15:37:00,
2013-07-09 11:43:00,67.5,67.4,35.48,East,88,0.2,3.6,99,0.00,n/a,n/a,-99.99,Henriksen +1-Wire,2013-07-09 15:43:00,
2013-07-09 11:48:00,67.6,67.3,35.48,East,83,0.1,2.1,99,0.00,n/a,n/a,-99.99,Henriksen +1-Wire,2013-07-09 15:48:00,
2013-07-09 11:53:00,68.0,67.7,35.48,ENE,76,0.1,2.4,98,0.00,n/a,n/a,-99.99,Henriksen +1-Wire,2013-07-09 15:53:00,
2013-07-09 11:58:00,68.4,67.9,35.47,ENE,64,0.0,2.4,98,0.00,n/a,n/a,-99.99,Henriksen +1-Wire,2013-07-09 15:58:00,
2013-07-09 12:03:00,68.8,68.2,35.47,East,82,0.0,1.8,98,0.00,n/a,n/a,-99.99,Henriksen +1-Wire,2013-07-09 16:03:00,
2013-07-09 12:08:00,69.4,68.8,35.47,East,87,0.6,4.1,97,0.00,n/a,n/a,-99.99,Henriksen +1-Wire,2013-07-09 16:08:00,
2013-07-09 12:13:00,70.0,69.1,35.47,East,93,0.0,4.1,96,0.00,n/a,n/a,-99.99,Henriksen +1-Wire,2013-07-09 16:13:00,
2013-07-09 12:18:00,70.6,69.1,35.46,East,90,1.2,4.7,94,0.00,n/a,n/a,-99.99,Henriksen +1-Wire,2013-07-09 16:18:00,
2013-07-09 12:24:00,71.1,69.4,35.46,SSE,153,1.8,8.9,94,0.00,n/a,n/a,-99.99,Henriksen +1-Wire,2013-07-09 16:24:00,
2013-07-09 12:29:00,71.2,69.1,35.47,SE,138,3.2,8.9,92,0.00,n/a,n/a,-99.99,Henriksen +1-Wire,2013-07-09 16:29:00,
2013-07-09 12:34:00,71.0,68.5,35.47,SE,142,2.5,7.2,91,0.00,n/a,n/a,-99.99,Henriksen +1-Wire,2013-07-09 16:34:00,
2013-07-09 12:40:00,70.6,67.8,35.47,SE,135,2.8,7.4,90,0.00,n/a,n/a,-99.99,Henriksen +1-Wire,2013-07-09 16:40:00,
2013-07-09 12:45:00,70.3,67.3,35.47,ESE,117,2.4,6.4,90,0.00,n/a,n/a,-99.99,Henriksen +1-Wire,2013-07-09 16:45:00,
2013-07-09 12:51:00,70.4,67.1,35.46,ESE,117,3.6,7.7,89,0.00,n/a,n/a,-99.99,Henriksen +1-Wire,2013-07-09 16:51:00,
2013-07-09 12:56:00,70.5,66.6,35.45,SSE,149,1.2,7.7,87,0.00,n/a,n/a,-99.99,Henriksen +1-Wire,2013-07-09 16:56:00,
2013-07-09 13:01:00,70.5,66.6,35.45,NE,45,0.0,6.4,87,0.00,n/a,n/a,-99.99,Henriksen +1-Wire,2013-07-09 17:01:00,
2013-07-09 13:07:00,70.6,66.7,35.45,East,92,0.0,4.7,87,0.00,n/a,n/a,-99.99,Henriksen +1-Wire,2013-07-09 17:07:00,
2013-07-09 13:12:00,70.7,67.2,35.45,NE,36,0.0,4.7,88,0.00,n/a,n/a,-99.99,Henriksen +1-Wire,2013-07-09 17:12:00,
2013-07-09 13:17:00,70.5,67.0,35.46,ENE,61,0.0,3.0,88,0.00,n/a,n/a,-99.99,Henriksen +1-Wire,2013-07-09 17:17:00,
2013-07-09 13:23:00,70.2,66.7,35.46,ESE,113,1.0,4.8,88,0.00,n/a,n/a,-99.99,Henriksen +1-Wire,2013-07-09 17:23:00,
2013-07-09 13:28:00,70.2,67.0,35.46,East,94,0.2,4.8,89,0.00,n/a,n/a,-99.99,Henriksen +1-Wire,2013-07-09 17:28:00,
2013-07-09 13:34:00,70.7,67.3,35.47,SSE,151,1.2,5.3,88,0.00,n/a,n/a,-99.99,Henriksen +1-Wire,2013-07-09 17:34:00,
2013-07-09 13:39:00,70.7,66.8,35.47,SSE,147,3.1,6.5,87,0.00,n/a,n/a,-99.99,Henriksen +1-Wire,2013-07-09 17:39:00,
2013-07-09 13:44:00,70.5,66.2,35.46,SE,136,2.5,6.6,86,0.00,n/a,n/a,-99.99,Henriksen +1-Wire,2013-07-09 17:44:00,
2013-07-09 13:49:00,70.5,66.0,35.45,SE,138,0.8,6.6,85,0.00,n/a,n/a,-99.99,Henriksen +1-Wire,2013-07-09 17:49:00,
2013-07-09 13:54:00,70.6,66.1,35.45,SE,145,2.0,6.3,85,0.00,n/a,n/a,-99.99,Henriksen +1-Wire,2013-07-09 17:54:00,
2013-07-09 13:59:00,70.9,66.3,35.45,SE,146,2.1,5.0,85,0.00,n/a,n/a,-99.99,Henriksen +1-Wire,2013-07-09 17:59:00,
2013-07-09 14:04:00,71.1,66.3,35.45,SE,143,3.2,6.6,84,0.00,n/a,n/a,-99.99,Henriksen +1-Wire,2013-07-09 18:04:00,
2013-07-09 14:10:00,71.3,66.4,35.45,SE,144,2.8,6.6,84,0.00,n/a,n/a,-99.99,Henriksen +1-Wire,2013-07-09 18:10:00,
2013-07-09 14:15:00,71.3,66.4,35.44,SSE,168,2.2,6.4,84,0.00,n/a,n/a,-99.99,Henriksen +1-Wire,2013-07-09 18:15:00,
2013-07-09 14:20:00,71.1,66.2,35.44,SSE,150,3.0,6.5,84,0.00,n/a,n/a,-99.99,Henriksen +1-Wire,2013-07-09 18:20:00,
2013-07-09 14:26:00,70.8,66.1,35.44,SE,140,2.9,6.5,84,0.00,n/a,n/a,-99.99,Henriksen +1-Wire,2013-07-09 18:26:00,
2013-07-09 14:31:00,70.7,66.1,35.43,SE,142,3.5,6.0,85,0.00,n/a,n/a,-99.99,Henriksen +1-Wire,2013-07-09 18:31:00,
2013-07-09 14:36:00,70.6,66.1,35.42,SE,142,3.4,6.6,85,0.00,n/a,n/a,-99.99,Henriksen +1-Wire,2013-07-09 18:36:00,
2013-07-09 14:41:00,70.5,66.0,35.42,SSE,159,3.7,6.6,85,0.00,n/a,n/a,-99.99,Henriksen +1-Wire,2013-07-09 18:41:00,
2013-07-09 14:46:00,70.4,65.9,35.42,SE,145,4.1,7.3,85,0.00,n/a,n/a,-99.99,Henriksen +1-Wire,2013-07-09 18:46:00,
2013-07-09 14:52:00,70.1,65.7,35.41,SE,143,3.5,7.3,85,0.00,n/a,n/a,-99.99,Henriksen +1-Wire,2013-07-09 18:52:00,
2013-07-09 14:57:00,70.0,65.7,35.41,SE,140,2.9,7.0,86,0.00,n/a,n/a,-99.99,Henriksen +1-Wire,2013-07-09 18:57:00,
2013-07-09 15:02:00,69.8,65.9,35.41,SSE,148,2.8,6.6,87,0.00,n/a,n/a,-99.99,Henriksen +1-Wire,2013-07-09 19:02:00,
2013-07-09 15:08:00,69.8,66.0,35.42,SE,141,3.5,5.7,87,0.00,n/a,n/a,-99.99,Henriksen +1-Wire,2013-07-09 19:08:00,
2013-07-09 15:13:00,69.6,66.0,35.42,SE,139,2.7,6.0,87,0.00,n/a,n/a,-99.99,Henriksen +1-Wire,2013-07-09 19:13:00,
2013-07-09 15:18:00,69.6,66.1,35.41,SE,142,3.0,6.0,88,0.00,n/a,n/a,-99.99,Henriksen +1-Wire,2013-07-09 19:18:00,
2013-07-09 15:24:00,69.7,66.2,35.41,SSE,151,2.9,6.0,88,0.00,n/a,n/a,-99.99,Henriksen +1-Wire,2013-07-09 19:24:00,
2013-07-09 15:30:00,69.8,66.3,35.41,SE,141,1.1,6.0,88,0.00,n/a,n/a,-99.99,Henriksen +1-Wire,2013-07-09 19:30:00,
2013-07-09 15:36:00,70.0,66.5,35.41,SSE,158,1.3,5.3,88,0.00,n/a,n/a,-99.99,Henriksen +1-Wire,2013-07-09 19:36:00,
2013-07-09 15:41:00,70.3,66.7,35.41,South,177,2.5,5.6,88,0.00,n/a,n/a,-99.99,Henriksen +1-Wire,2013-07-09 19:41:00,
2013-07-09 15:47:00,70.2,66.5,35.41,SSE,150,1.9,5.6,87,0.00,n/a,n/a,-99.99,Henriksen +1-Wire,2013-07-09 19:47:00,
2013-07-09 15:52:00,70.1,66.4,35.41,SE,134,0.2,5.4,87,0.00,n/a,n/a,-99.99,Henriksen +1-Wire,2013-07-09 19:52:00,
2013-07-09 15:57:00,70.1,66.4,35.41,SE,137,1.4,3.9,87,0.00,n/a,n/a,-99.99,Henriksen +1-Wire,2013-07-09 19:57:00,
2013-07-09 16:02:00,70.0,66.2,35.41,South,169,1.4,5.3,87,0.00,n/a,n/a,-99.99,Henriksen +1-Wire,2013-07-09 20:02:00,
2013-07-09 16:07:00,70.1,66.2,35.41,SE,146,3.0,6.0,87,0.00,n/a,n/a,-99.99,Henriksen +1-Wire,2013-07-09 20:07:00,
2013-07-09 16:13:00,70.0,66.4,35.42,SE,126,2.4,6.2,88,0.00,n/a,n/a,-99.99,Henriksen +1-Wire,2013-07-09 20:13:00,
2013-07-09 16:18:00,69.6,66.2,35.42,SE,131,4.1,6.5,89,0.00,n/a,n/a,-99.99,Henriksen +1-Wire,2013-07-09 20:18:00,
2013-07-09 16:23:00,69.2,66.2,35.42,SE,142,3.2,6.5,90,0.00,n/a,n/a,-99.99,Henriksen +1-Wire,2013-07-09 20:23:00,
2013-07-09 16:28:00,68.8,66.2,35.42,SE,142,3.4,6.6,91,0.00,n/a,n/a,-99.99,Henriksen +1-Wire,2013-07-09 20:28:00,
2013-07-09 16:33:00,68.6,66.2,35.42,SE,133,2.6,6.6,92,0.00,n/a,n/a,-99.99,Henriksen +1-Wire,2013-07-09 20:33:00,
2013-07-09 16:39:00,68.4,66.2,35.42,SE,131,2.5,5.4,92,0.00,n/a,n/a,-99.99,Henriksen +1-Wire,2013-07-09 20:39:00,
2013-07-09 16:44:00,68.3,66.4,35.43,SE,145,1.4,4.7,93,0.00,n/a,n/a,-99.99,Henriksen +1-Wire,2013-07-09 20:44:00,
2013-07-09 16:49:00,67.9,66.2,35.44,SE,143,0.3,4.7,94,0.00,n/a,n/a,-99.99,Henriksen +1-Wire,2013-07-09 20:49:00,
2013-07-09 16:55:00,67.4,66.1,35.44,SE,130,1.5,4.1,95,0.00,n/a,n/a,-99.99,Henriksen +1-Wire,2013-07-09 20:55:00,
2013-07-09 17:00:00,67.3,66.2,35.43,SE,133,0.3,4.1,96,0.00,n/a,n/a,-99.99,Henriksen +1-Wire,2013-07-09 21:00:00,
2013-07-09 17:05:00,67.2,66.4,35.42,SSE,156,0.6,4.1,97,0.00,n/a,n/a,-99.99,Henriksen +1-Wire,2013-07-09 21:05:00,
2013-07-09 17:10:00,67.1,66.4,35.43,SE,142,0.1,3.0,97,0.00,n/a,n/a,-99.99,Henriksen +1-Wire,2013-07-09 21:10:00,
2013-07-09 17:16:00,67.0,66.4,35.44,SE,137,1.2,2.4,97,0.00,n/a,n/a,-99.99,Henriksen +1-Wire,2013-07-09 21:16:00,
2013-07-09 17:21:00,67.1,66.4,35.44,SSE,161,1.2,3.5,97,0.00,n/a,n/a,-99.99,Henriksen +1-Wire,2013-07-09 21:21:00,
2013-07-09 17:26:00,67.1,66.5,35.43,SSE,162,0.6,3.5,97,0.00,n/a,n/a,-99.99,Henriksen +1-Wire,2013-07-09 21:26:00,
2013-07-09 17:31:00,67.1,66.4,35.42,SE,141,1.2,3.0,97,0.00,n/a,n/a,-99.99,Henriksen +1-Wire,2013-07-09 21:31:00,
2013-07-09 17:36:00,67.1,66.4,35.42,SE,139,0.4,3.3,97,0.00,n/a,n/a,-99.99,Henriksen +1-Wire,2013-07-09 21:36:00,
2013-07-09 17:41:00,67.1,66.5,35.41,SSE,155,0.4,3.3,97,0.00,n/a,n/a,-99.99,Henriksen +1-Wire,2013-07-09 21:41:00,
2013-07-09 17:46:00,67.1,66.7,35.41,SE,132,0.3,3.5,98,0.00,n/a,n/a,-99.99,Henriksen +1-Wire,2013-07-09 21:46:00,
2013-07-09 17:51:00,67.1,66.9,35.42,SE,142,0.0,3.5,99,0.00,n/a,n/a,-99.99,Henriksen +1-Wire,2013-07-09 21:51:00,
2013-07-09 17:56:00,67.1,66.9,35.42,SSW,201,0.0,0.6,99,0.00,n/a,n/a,-99.99,Henriksen +1-Wire,2013-07-09 21:56:00,
2013-07-09 18:01:00,67.1,67.0,35.42,South,170,0.0,0.0,99,0.00,n/a,n/a,-99.99,Henriksen +1-Wire,2013-07-09 22:01:00,
2013-07-09 18:03:00,67.0,66.9,35.42,SSE,162,0.0,0.0,99,0.00,n/a,n/a,-99.99,Henriksen +1-Wire,2013-07-09 22:03:00,
2013-07-09 18:09:00,66.8,66.7,35.41,SSE,168,1.3,3.0,99,0.00,n/a,n/a,-99.99,Henriksen +1-Wire,2013-07-09 22:09:00,
2013-07-09 18:14:00,66.7,66.6,35.41,SE,138,1.4,4.2,99,0.00,n/a,n/a,-99.99,Henriksen +1-Wire,2013-07-09 22:14:00,
2013-07-09 18:19:00,66.6,66.6,35.40,SE,137,0.2,4.2,99,0.00,n/a,n/a,-99.99,Henriksen +1-Wire,2013-07-09 22:19:00,
2013-07-09 18:24:00,66.6,66.6,35.40,South,175,0.4,3.7,100,0.00,n/a,n/a,-99.99,Henriksen +1-Wire,2013-07-09 22:24:00,
2013-07-09 18:35:00,67.2,64.3,29.89,SSE,151,0.9,2.8,90,0.00,n/a,n/a,-99.99,Henriksen +1-Wire,2013-07-09 22:35:00,
2013-07-09 18:41:00,68.3,65.4,29.89,SE,136,0.0,3.2,90,0.00,n/a,n/a,-99.99,Henriksen +1-Wire,2013-07-09 22:41:00,
2013-07-09 18:46:00,68.8,65.9,29.89,ESE,104,0.1,1.9,90,0.00,n/a,n/a,-99.99,Henriksen +1-Wire,2013-07-09 22:46:00,
2013-07-09 18:51:00,69.0,66.2,29.89,ENE,77,0.0,1.8,90,0.00,n/a,n/a,-99.99,Henriksen +1-Wire,2013-07-09 22:51:00,
2013-07-09 18:57:00,69.1,66.6,29.88,East,90,0.5,1.8,91,0.00,n/a,n/a,-99.99,Henriksen +1-Wire,2013-07-09 22:57:00,
2013-07-09 19:02:00,69.1,66.7,29.88,ESE,110,0.0,1.8,92,0.00,n/a,n/a,-99.99,Henriksen +1-Wire,2013-07-09 23:02:00,
2013-07-09 19:08:00,69.0,66.7,29.88,SE,132,0.0,1.4,92,0.00,n/a,n/a,-99.99,Henriksen +1-Wire,2013-07-09 23:08:00,
2013-07-09 19:13:00,68.9,66.7,29.86,SSE,156,0.0,2.9,92,0.00,n/a,n/a,-99.99,Henriksen +1-Wire,2013-07-09 23:13:00,
2013-07-09 19:18:00,68.9,66.6,29.86,SE,146,0.0,2.9,92,0.00,n/a,n/a,-99.99,Henriksen +1-Wire,2013-07-09 23:18:00,
2013-07-09 19:23:00,68.7,66.5,29.87,East,101,0.0,1.8,92,0.00,n/a,n/a,-99.99,Henriksen +1-Wire,2013-07-09 23:23:00,
2013-07-09 19:28:00,68.6,66.4,29.87,East,100,0.0,1.8,92,0.00,n/a,n/a,-99.99,Henriksen +1-Wire,2013-07-09 23:28:00,
2013-07-09 19:33:00,68.5,66.4,29.87,SE,138,0.0,1.3,93,0.00,n/a,n/a,-99.99,Henriksen +1-Wire,2013-07-09 23:33:00,
2013-07-09 19:38:00,68.4,66.5,29.87,East,95,0.0,1.2,93,0.00,n/a,n/a,-99.99,Henriksen +1-Wire,2013-07-09 23:38:00,
2013-07-09 19:43:00,68.3,66.6,29.87,SSE,148,0.0,0.6,94,0.00,n/a,n/a,-99.99,Henriksen +1-Wire,2013-07-09 23:43:00,
2013-07-09 19:49:00,68.2,66.6,29.87,ESE,110,0.0,0.0,94,0.00,n/a,n/a,-99.99,Henriksen +1-Wire,2013-07-09 23:49:00,
2013-07-09 19:54:00,68.2,66.6,29.87,SE,138,0.0,0.0,94,0.00,n/a,n/a,-99.99,Henriksen +1-Wire,2013-07-09 23:54:00,
2013-07-09 20:00:00,68.1,66.6,29.88,ESE,113,0.0,0.0,95,0.00,n/a,n/a,-99.99,Henriksen +1-Wire,2013-07-10 00:00:00,
2013-07-09 20:06:00,67.9,66.6,29.87,East,85,0.5,1.8,95,0.00,n/a,n/a,-99.99,Henriksen +1-Wire,2013-07-10 00:06:00,
2013-07-09 20:11:00,67.7,66.5,29.87,NE,52,0.0,1.8,95,0.00,n/a,n/a,-99.99,Henriksen +1-Wire,2013-07-10 00:11:00,
2013-07-09 20:17:00,67.6,66.4,29.87,East,84,0.3,2.5,96,0.00,n/a,n/a,-99.99,Henriksen +1-Wire,2013-07-10 00:17:00,
2013-07-09 20:22:00,67.4,66.3,29.87,SE,140,0.2,2.5,96,0.00,n/a,n/a,-99.99,Henriksen +1-Wire,2013-07-10 00:22:00,
2013-07-09 20:27:00,67.3,66.3,29.87,SE,139,0.0,1.2,96,0.00,n/a,n/a,-99.99,Henriksen +1-Wire,2013-07-10 00:27:00,
2013-07-09 20:32:00,67.2,66.3,29.87,ESE,123,0.0,1.1,96,0.00,n/a,n/a,-99.99,Henriksen +1-Wire,2013-07-10 00:32:00,
2013-07-09 20:38:00,67.2,66.3,29.88,SE,141,0.0,1.1,97,0.00,n/a,n/a,-99.99,Henriksen +1-Wire,2013-07-10 00:38:00,
2013-07-09 20:43:00,67.1,66.3,29.88,SE,143,0.0,0.0,97,0.00,n/a,n/a,-99.99,Henriksen +1-Wire,2013-07-10 00:43:00,
2013-07-09 20:48:00,67.1,66.3,29.89,SSE,162,0.0,0.0,97,0.00,n/a,n/a,-99.99,Henriksen +1-Wire,2013-07-10 00:48:00,
2013-07-09 20:53:00,67.0,66.3,29.89,East,98,0.0,0.0,97,0.00,n/a,n/a,-99.99,Henriksen +1-Wire,2013-07-10 00:53:00,
2013-07-09 20:58:00,66.9,66.2,29.89,ESE,110,0.0,0.0,97,0.00,n/a,n/a,-99.99,Henriksen +1-Wire,2013-07-10 00:58:00,
2013-07-09 21:03:00,66.9,66.2,29.89,SE,133,0.0,0.0,97,0.00,n/a,n/a,-99.99,Henriksen +1-Wire,2013-07-10 01:03:00,
2013-07-09 21:08:00,66.8,66.3,29.89,East,96,0.0,0.0,98,0.00,n/a,n/a,-99.99,Henriksen +1-Wire,2013-07-10 01:08:00,
2013-07-09 21:13:00,66.8,66.3,29.90,SE,136,0.0,0.0,98,0.00,n/a,n/a,-99.99,Henriksen +1-Wire,2013-07-10 01:13:00,
2013-07-09 21:18:00,66.7,66.2,29.91,East,98,0.0,0.0,98,0.00,n/a,n/a,-99.99,Henriksen +1-Wire,2013-07-10 01:18:00,
2013-07-09 21:23:00,66.6,66.2,29.91,ENE,62,0.0,1.1,98,0.00,n/a,n/a,-99.99,Henriksen +1-Wire,2013-07-10 01:23:00,
2013-07-09 21:28:00,66.6,66.2,29.90,ESE,120,0.0,1.1,98,0.00,n/a,n/a,-99.99,Henriksen +1-Wire,2013-07-10 01:28:00,
2013-07-09 21:34:00,66.5,66.1,29.89,SSE,157,0.6,2.3,98,0.00,n/a,n/a,-99.99,Henriksen +1-Wire,2013-07-10 01:34:00,
2013-07-09 21:39:00,66.5,66.1,29.88,SE,146,0.0,2.3,98,0.00,n/a,n/a,-99.99,Henriksen +1-Wire,2013-07-10 01:39:00,
2013-07-09 21:45:00,66.5,66.1,29.88,ESE,108,0.0,0.0,98,0.00,n/a,n/a,-99.99,Henriksen +1-Wire,2013-07-10 01:45:00,
2013-07-09 21:50:00,66.5,66.2,29.89,SE,130,0.3,4.0,98,0.00,n/a,n/a,-99.99,Henriksen +1-Wire,2013-07-10 01:50:00,
2013-07-09 21:55:00,66.5,66.2,29.90,ESE,122,0.2,4.0,99,0.00,n/a,n/a,-99.99,Henriksen +1-Wire,2013-07-10 01:55:00,
2013-07-09 22:00:00,66.5,66.2,29.90,East,99,0.2,3.3,99,0.00,n/a,n/a,-99.99,Henriksen +1-Wire,2013-07-10 02:00:00,
2013-07-09 22:06:00,66.4,66.1,29.89,SE,127,0.0,2.1,99,0.00,n/a,n/a,-99.99,Henriksen +1-Wire,2013-07-10 02:06:00,
2013-07-09 22:12:00,66.3,66.1,29.89,SSE,167,0.1,3.2,99,0.00,n/a,n/a,-99.99,Henriksen +1-Wire,2013-07-10 02:12:00,
2013-07-09 22:17:00,66.3,66.1,29.89,SE,137,0.0,3.2,99,0.00,n/a,n/a,-99.99,Henriksen +1-Wire,2013-07-10 02:17:00,
2013-07-09 22:22:00,66.3,66.1,29.90,SE,136,0.0,0.0,99,0.00,n/a,n/a,-99.99,Henriksen +1-Wire,2013-07-10 02:22:00,
2013-07-09 22:27:00,66.3,66.1,29.91,SSE,154,0.0,0.0,99,0.00,n/a,n/a,-99.99,Henriksen +1-Wire,2013-07-10 02:27:00,
2013-07-09 22:32:00,66.3,66.2,29.91,South,186,0.0,0.0,99,0.00,n/a,n/a,-99.99,Henriksen +1-Wire,2013-07-10 02:32:00,
2013-07-09 22:38:00,66.4,66.3,29.92,SE,136,0.0,0.0,99,0.00,n/a,n/a,-99.99,Henriksen +1-Wire,2013-07-10 02:38:00,
2013-07-09 22:43:00,66.4,66.3,29.93,South,182,0.0,0.0,99,0.00,n/a,n/a,-99.99,Henriksen +1-Wire,2013-07-10 02:43:00,
2013-07-09 22:48:00,66.4,66.3,29.95,SE,146,0.0,0.0,99,0.00,n/a,n/a,-99.99,Henriksen +1-Wire,2013-07-10 02:48:00,
2013-07-09 22:53:00,66.4,66.3,29.95,SSE,153,0.0,0.0,99,0.00,n/a,n/a,-99.99,Henriksen +1-Wire,2013-07-10 02:53:00,
2013-07-09 22:59:00,66.4,66.3,29.95,East,97,0.0,0.0,99,0.00,n/a,n/a,-99.99,Henriksen +1-Wire,2013-07-10 02:59:00,
2013-07-09 23:04:00,66.4,66.3,29.95,ESE,109,0.0,0.0,99,0.00,n/a,n/a,-99.99,Henriksen +1-Wire,2013-07-10 03:04:00,
2013-07-09 23:09:00,66.3,66.2,29.95,East,99,0.0,0.0,99,0.00,n/a,n/a,-99.99,Henriksen +1-Wire,2013-07-10 03:09:00,
2013-07-09 23:14:00,66.2,66.2,29.94,East,92,0.0,0.0,99,0.00,n/a,n/a,-99.99,Henriksen +1-Wire,2013-07-10 03:14:00,
2013-07-09 23:19:00,66.2,66.1,29.94,ESE,107,0.0,0.0,99,0.00,n/a,n/a,-99.99,Henriksen +1-Wire,2013-07-10 03:19:00,
2013-07-09 23:24:00,66.1,66.1,29.94,SSE,156,0.0,0.0,99,0.00,n/a,n/a,-99.99,Henriksen +1-Wire,2013-07-10 03:24:00,
2013-07-09 23:29:00,66.1,66.1,29.94,SE,139,0.0,0.0,100,0.00,n/a,n/a,-99.99,Henriksen +1-Wire,2013-07-10 03:29:00,
2013-07-09 23:35:00,66.0,66.0,29.94,East,96,0.0,0.0,100,0.00,n/a,n/a,-99.99,Henriksen +1-Wire,2013-07-10 03:35:00,
2013-07-09 23:40:00,66.0,66.0,29.94,SE,141,0.0,0.0,100,0.00,n/a,n/a,-99.99,Henriksen +1-Wire,2013-07-10 03:40:00,
2013-07-09 23:46:00,66.0,66.0,29.93,SE,131,0.0,0.0,100,0.00,n/a,n/a,-99.99,Henriksen +1-Wire,2013-07-10 03:46:00,
2013-07-09 23:51:00,66.0,66.0,29.92,South,170,0.0,0.0,100,0.00,n/a,n/a,-99.99,Henriksen +1-Wire,2013-07-10 03:51:00,
2013-07-09 23:56:00,66.0,66.0,29.92,SE,137,0.0,0.0,100,0.00,n/a,n/a,-99.99,Henriksen +1-Wire,2013-07-10 03:56:00,